^^
Saratoga-Weather Station Historical Data
Daily Summary for January 24, 2020 Units:  Metric    English   Both
Daily Weekly Monthly Yearly Custom
  High: Low: Average:
Temperature: 10.5 °C °C 4.6 °C
Dew Point: -5.6 °C °C -7.6 °C
Humidity: 66% % 42%
Wind Speed: 25.7km/h 0km/h 4.9km/h
Wind Gust: 29km/h - -
Wind- - East
Pressure: 1030.1 hPa 1025.7 hPa -
Precipitation: 0.0 mm    
Historical Graphs
 
 
Tabular Data for January 24, 2020
Time Temperature Dew Point Pressure Wind Wind Speed Wind Gust Humidity Rainfall Rate (Hourly) solar
00:01 2.3 °C -7.1 °C 1029.8 hPa ESE 3.2 km/h 4.8 km/h 50% 0.0 mm 0 W/m2
00:06 2.3 °C -7.1 °C 1029.8 hPa SE 1.4 km/h 4.8 km/h 50% 0.0 mm 0 W/m2
00:11 2.3 °C -7.1 °C 1029.8 hPa ESE 4.7 km/h 4.8 km/h 50% 0.0 mm 0 W/m2
00:16 2.3 °C -7.1 °C 1029.8 hPa Calm   3.2 km/h 50% 0.0 mm 0 W/m2
00:21 2.3 °C -7.1 °C 1029.8 hPa East 1.4 km/h 6.4 km/h 50% 0.0 mm 0 W/m2
00:26 °C °C 1029.8 hPa East 1.4 km/h 3.2 km/h % 0.0 mm W/m2
00:31 1.4 °C -7.1 °C 1029.5 hPa ESE 1.4 km/h 4.8 km/h 53% 0.0 mm 0 W/m2
00:36 1.4 °C -7.1 °C 1029.8 hPa ESE 1.4 km/h 4.8 km/h 53% 0.0 mm 0 W/m2
00:41 1.3 °C -7 °C 1029.8 hPa ESE 3.2 km/h 3.2 km/h 54% 0.0 mm 0 W/m2
00:46 1.2 °C -7.1 °C 1029.8 hPa East 4.7 km/h 6.4 km/h 54% 0.0 mm 0 W/m2
00:51 1.2 °C -7.1 °C 1029.8 hPa ESE 1.4 km/h 4.8 km/h 54% 0.0 mm 0 W/m2
00:56 1.2 °C -7.3 °C 1029.8 hPa Calm   3.2 km/h 53% 0.0 mm 0 W/m2
01:01 1.3 °C -7.2 °C 1029.8 hPa ESE 4.7 km/h 4.8 km/h 53% 0.0 mm 0 W/m2
01:06 1.3 °C -7 °C 1029.8 hPa Calm   1.6 km/h 54% 0.0 mm 0 W/m2
01:11 1.2 °C -7.3 °C 1029.8 hPa ESE 1.4 km/h 6.4 km/h 53% 0.0 mm 0 W/m2
01:16 1.1 °C -6.9 °C 1029.8 hPa Calm   1.6 km/h 55% 0.0 mm 0 W/m2
01:21 1 °C -6.8 °C 1029.8 hPa Calm   6.4 km/h 56% 0.0 mm 0 W/m2
01:26 0.8 °C -6.5 °C 1029.8 hPa ESE 1.4 km/h 3.2 km/h 58% 0.0 mm 0 W/m2
01:31 0.6 °C -6.9 °C 1029.8 hPa Calm   1.6 km/h 57% 0.0 mm 0 W/m2
01:36 0.5 °C -6.6 °C 1029.8 hPa Calm     59% 0.0 mm 0 W/m2
01:41 0.4 °C -6.5 °C 1029.8 hPa Calm   1.6 km/h 60% 0.0 mm 0 W/m2
01:46 0.3 °C -7 °C 1029.8 hPa Calm     58% 0.0 mm 0 W/m2
01:52 0.2 °C -6.4 °C 1029.8 hPa Calm     61% 0.0 mm 0 W/m2
01:57 0.1 °C -6.1 °C 1029.8 hPa SE 1.4 km/h 1.6 km/h 63% 0.0 mm 0 W/m2
02:02 -0.1 °C -6.1 °C 1029.8 hPa SE 1.4 km/h 1.6 km/h 64% 0.0 mm 0 W/m2
02:07 -0.3 °C -6.3 °C 1029.8 hPa SE 1.4 km/h 3.2 km/h 64% 0.0 mm 0 W/m2
02:12 -0.5 °C -6.5 °C 1029.8 hPa Calm   1.6 km/h 64% 0.0 mm 0 W/m2
02:17 -0.6 °C -6.4 °C 1029.8 hPa SE 1.4 km/h 1.6 km/h 65% 0.0 mm 0 W/m2
02:22 -0.7 °C -6.5 °C 1029.8 hPa Calm   1.6 km/h 65% 0.0 mm 0 W/m2
02:27 -0.7 °C -6.5 °C 1029.8 hPa Calm   1.6 km/h 65% 0.0 mm 0 W/m2
02:32 -0.6 °C -6.4 °C 1029.8 hPa Calm   1.6 km/h 65% 0.0 mm 0 W/m2
02:37 -0.7 °C -6.3 °C 1029.8 hPa Calm   3.2 km/h 66% 0.0 mm 0 W/m2
02:42 -0.6 °C -7 °C 1029.8 hPa Calm   3.2 km/h 62% 0.0 mm 0 W/m2
02:47 -0.2 °C -7 °C 1029.8 hPa Calm   3.2 km/h 60% 0.0 mm 0 W/m2
02:52 0.1 °C -7.2 °C 1029.5 hPa ENE 1.4 km/h 3.2 km/h 58% 0.0 mm 0 W/m2
03:02 0.4 °C -7.1 °C 1029.5 hPa Calm   3.2 km/h 57% 0.0 mm 0 W/m2
03:07 0.3 °C -7.2 °C 1029.5 hPa SSE 1.4 km/h 8 km/h 57% 0.0 mm 0 W/m2
03:12 0.2 °C -7.3 °C 1029.5 hPa SSE 4.7 km/h 4.8 km/h 57% 0.0 mm 0 W/m2
03:17 0.2 °C -7.3 °C 1029.5 hPa Calm   1.6 km/h 57% 0.0 mm 0 W/m2
03:22 0.1 °C -6.7 °C 1029.5 hPa Calm     60% 0.0 mm 0 W/m2
03:27 -0.1 °C -6.7 °C 1029.5 hPa Calm     61% 0.0 mm 0 W/m2
03:32 -0.3 °C -6.5 °C 1029.5 hPa Calm   1.6 km/h 63% 0.0 mm 0 W/m2
03:37 -0.5 °C -6.9 °C 1029.5 hPa Calm     62% 0.0 mm 0 W/m2
03:42 -0.6 °C -6.8 °C 1029.5 hPa Calm   1.6 km/h 63% 0.0 mm 0 W/m2
03:47 -0.7 °C -6.9 °C 1029.5 hPa Calm   1.6 km/h 63% 0.0 mm 0 W/m2
03:52 -0.8 °C -6.8 °C 1029.5 hPa Calm     64% 0.0 mm 0 W/m2
03:57 -0.9 °C -6.7 °C 1029.5 hPa Calm   1.6 km/h 65% 0.0 mm 0 W/m2
04:02 -1 °C -6.9 °C 1029.5 hPa Calm   1.6 km/h 64% 0.0 mm 0 W/m2
04:07 -0.9 °C -7.3 °C 1029.5 hPa Calm   3.2 km/h 62% 0.0 mm 0 W/m2
04:12 -0.7 °C -7.5 °C 1029.5 hPa East 1.4 km/h 3.2 km/h 60% 0.0 mm 0 W/m2
04:18 -0.1 °C -7.6 °C 1029.5 hPa East 1.4 km/h 6.4 km/h 57% 0.0 mm 0 W/m2
04:23 0.2 °C -7.8 °C 1029.5 hPa East 3.2 km/h 6.4 km/h 55% 0.0 mm 0 W/m2
04:28 0.4 °C -7.6 °C 1029.5 hPa East 1.4 km/h 11.3 km/h 55% 0.0 mm 0 W/m2
04:33 0.5 °C -7.7 °C 1029.5 hPa East 4.7 km/h 11.3 km/h 54% 0.0 mm 0 W/m2
04:38 0.6 °C -7.9 °C 1029.5 hPa ESE 1.4 km/h 9.7 km/h 53% 0.0 mm 0 W/m2
04:43 0.7 °C -7.8 °C 1029.5 hPa ESE 3.2 km/h 6.4 km/h 53% 0.0 mm 0 W/m2
04:48 0.7 °C -7.8 °C 1029.5 hPa East 3.2 km/h 8 km/h 53% 0.0 mm 0 W/m2
04:53 0.8 °C -7.9 °C 1029.5 hPa ESE 1.4 km/h 4.8 km/h 52% 0.0 mm 0 W/m2
04:58 0.7 °C -8 °C 1029.5 hPa ESE 1.4 km/h 4.8 km/h 52% 0.0 mm 0 W/m2
05:03 0.7 °C -8 °C 1029.5 hPa ESE 1.4 km/h 11.3 km/h 52% 0.0 mm 0 W/m2
05:08 0.7 °C -8 °C 1029.5 hPa East 4.7 km/h 6.4 km/h 52% 0.0 mm 0 W/m2
05:13 0.7 °C -8 °C 1029.5 hPa ESE 6.4 km/h 11.3 km/h 52% 0.0 mm 0 W/m2
05:18 0.7 °C -8 °C 1029.5 hPa ESE 1.4 km/h 4.8 km/h 52% 0.0 mm 0 W/m2
05:23 0.7 °C -8 °C 1029.5 hPa ENE 1.4 km/h 6.4 km/h 52% 0.0 mm 0 W/m2
05:28 0.6 °C -7.9 °C 1029.5 hPa ESE 3.2 km/h 4.8 km/h 53% 0.0 mm 0 W/m2
05:33 0.4 °C -8.1 °C 1029.5 hPa SE 6.4 km/h 9.7 km/h 53% 0.0 mm 0 W/m2
05:38 0.4 °C -8.1 °C 1029.5 hPa ESE 4.7 km/h 6.4 km/h 53% 0.0 mm 0 W/m2
05:43 0.3 °C -8.2 °C 1029.5 hPa ESE 4.7 km/h 9.7 km/h 53% 0.0 mm 0 W/m2
05:48 0.3 °C -7.9 °C 1029.5 hPa ESE 4.7 km/h 4.8 km/h 54% 0.0 mm 0 W/m2
05:53 0.2 °C -8 °C 1029.5 hPa ENE 9.7 km/h 12.9 km/h 54% 0.0 mm 0 W/m2
05:58 0.3 °C -7.9 °C 1029.8 hPa ESE 1.4 km/h 4.8 km/h 54% 0.0 mm 0 W/m2
06:03 0.2 °C -8 °C 1029.8 hPa ESE 3.2 km/h 12.9 km/h 54% 0.0 mm 0 W/m2
06:08 0.2 °C -8 °C 1029.8 hPa East 1.4 km/h 4.8 km/h 54% 0.0 mm 0 W/m2
06:13 0.1 °C -8.1 °C 1029.8 hPa SE 3.2 km/h 3.2 km/h 54% 0.0 mm 0 W/m2
06:18 0.1 °C -8.1 °C 1029.8 hPa ESE 1.4 km/h 4.8 km/h 54% 0.0 mm 0 W/m2
06:23 0 °C -8.2 °C 1029.8 hPa ESE 1.4 km/h 4.8 km/h 54% 0.0 mm 0 W/m2
06:28 0 °C -8.2 °C 1029.8 hPa East 3.2 km/h 6.4 km/h 54% 0.0 mm 5 W/m2
06:33 0 °C -8.2 °C 1029.8 hPa East 3.2 km/h 4.8 km/h 54% 0.0 mm 7 W/m2
06:38 0 °C -8.2 °C 1029.8 hPa ESE 4.7 km/h 6.4 km/h 54% 0.0 mm 11 W/m2
06:43 0 °C -8.2 °C 1029.8 hPa East 4.7 km/h 4.8 km/h 54% 0.0 mm 12 W/m2
06:48 0 °C -8.2 °C 1029.8 hPa ESE 4.7 km/h 6.4 km/h 54% 0.0 mm 14 W/m2
06:53 0.1 °C -8.1 °C 1029.8 hPa ESE 1.4 km/h 6.4 km/h 54% 0.0 mm 16 W/m2
06:59 0.1 °C -8.1 °C 1029.8 hPa East 1.4 km/h 6.4 km/h 54% 0.0 mm 18 W/m2
07:04 0.2 °C -8 °C 1029.8 hPa East 6.4 km/h 16.1 km/h 54% 0.0 mm 19 W/m2
07:09 0.3 °C -7.9 °C 1029.8 hPa SE 3.2 km/h 8 km/h 54% 0.0 mm 21 W/m2
07:14 0.5 °C -8 °C 1029.8 hPa ENE 4.7 km/h 12.9 km/h 53% 0.0 mm 23 W/m2
07:19 0.6 °C -7.9 °C 1029.8 hPa SE 1.4 km/h 11.3 km/h 53% 0.0 mm 25 W/m2
07:24 0.7 °C -8 °C 1029.8 hPa ESE 6.4 km/h 9.7 km/h 52% 0.0 mm 26 W/m2
07:29 0.8 °C -7.9 °C 1029.8 hPa ENE 6.4 km/h 6.4 km/h 52% 0.0 mm 28 W/m2
07:34 0.8 °C -8.2 °C 1029.8 hPa SE 3.2 km/h 6.4 km/h 51% 0.0 mm 28 W/m2
07:39 0.9 °C -8.1 °C 1029.8 hPa SE 3.2 km/h 6.4 km/h 51% 0.0 mm 62 W/m2
07:44 1 °C -8 °C 1029.8 hPa SE 4.7 km/h 11.3 km/h 51% 0.0 mm 160 W/m2
07:49 1.1 °C -7.9 °C 1029.8 hPa East 3.2 km/h 6.4 km/h 51% 0.0 mm 169 W/m2
07:54 1.2 °C -8.1 °C 1029.8 hPa ESE 3.2 km/h 8 km/h 50% 0.0 mm 171 W/m2
07:59 1.3 °C -8 °C 1029.8 hPa NNE 4.7 km/h 12.9 km/h 50% 0.0 mm 163 W/m2
08:04 1.3 °C -8 °C 1029.8 hPa East 1.4 km/h 12.9 km/h 50% 0.0 mm 206 W/m2
08:09 1.4 °C -7.9 °C 1029.8 hPa East 6.4 km/h 12.9 km/h 50% 0.0 mm 207 W/m2
08:14 1.6 °C -7.7 °C 1029.8 hPa East 6.4 km/h 14.5 km/h 50% 0.0 mm 229 W/m2
08:19 1.8 °C -7.8 °C 1029.8 hPa ESE 4.7 km/h 11.3 km/h 49% 0.0 mm 178 W/m2
08:24 1.9 °C -8 °C 1029.8 hPa East 4.7 km/h 16.1 km/h 48% 0.0 mm 35 W/m2
08:29 2.1 °C -7.8 °C 1029.8 hPa ESE 4.7 km/h 14.5 km/h 48% 0.0 mm 141 W/m2
08:34 2.2 °C -7.7 °C 1029.8 hPa ESE 6.4 km/h 11.3 km/h 48% 0.0 mm 285 W/m2
08:39 2.5 °C -8 °C 1029.8 hPa ESE 6.4 km/h 19.3 km/h 46% 0.0 mm 299 W/m2
08:44 2.8 °C -7.7 °C 1029.8 hPa East 9.7 km/h 9.7 km/h 46% 0.0 mm 309 W/m2
08:49 3 °C -7.8 °C 1029.8 hPa East 13 km/h 12.9 km/h 45% 0.0 mm 322 W/m2
08:54 3.2 °C -7.6 °C 1029.8 hPa ESE 4.7 km/h 8 km/h 45% 0.0 mm 336 W/m2
08:59 3.4 °C -7.7 °C 1029.8 hPa East 13 km/h 20.9 km/h 44% 0.0 mm 346 W/m2
09:04 3.5 °C -7.9 °C 1030.1 hPa SE 3.2 km/h 20.9 km/h 43% 0.0 mm 359 W/m2
09:09 3.6 °C -8.1 °C 1029.8 hPa ENE 16.3 km/h 16.1 km/h 42% 0.0 mm 371 W/m2
09:14 3.7 °C -8 °C 1029.8 hPa ENE 4.7 km/h 20.9 km/h 42% 0.0 mm 381 W/m2
09:19 3.9 °C -7.9 °C 1029.8 hPa SE 6.4 km/h 9.7 km/h 42% 0.0 mm 394 W/m2
09:24 4.1 °C -7.7 °C 1029.8 hPa ENE 7.9 km/h 12.9 km/h 42% 0.0 mm 406 W/m2
09:29 4.3 °C -7.8 °C 1029.8 hPa East 4.7 km/h 14.5 km/h 41% 0.0 mm 417 W/m2
09:34 4.3 °C -8.4 °C 1029.8 hPa SE 4.7 km/h 22.5 km/h 39% 0.0 mm 429 W/m2
09:39 4.4 °C -8 °C 1029.8 hPa ESE 9.7 km/h 9.7 km/h 40% 0.0 mm 441 W/m2
09:44 4.8 °C -7.3 °C 1029.5 hPa ESE 13 km/h 19.3 km/h 41% 0.0 mm 452 W/m2
09:49 5.1 °C -8.1 °C 1029.5 hPa NE 4.7 km/h 11.3 km/h 38% 0.0 mm 461 W/m2
09:54 5.3 °C -7.5 °C 1029.8 hPa NE 17.7 km/h 17.7 km/h 39% 0.0 mm 471 W/m2
09:59 5.3 °C -8.2 °C 1029.8 hPa ESE 11.1 km/h 17.7 km/h 37% 0.0 mm 482 W/m2
10:04 5.5 °C -8 °C 1029.8 hPa East 9.7 km/h 14.5 km/h 37% 0.0 mm 490 W/m2
10:09 5.6 °C -8.7 °C 1029.8 hPa East 6.4 km/h 22.5 km/h 35% 0.0 mm 501 W/m2
10:14 5.7 °C -8.2 °C 1029.8 hPa ESE 9.7 km/h 16.1 km/h 36% 0.0 mm 510 W/m2
10:19 5.7 °C -8.6 °C 1029.8 hPa ESE 6.4 km/h 22.5 km/h 35% 0.0 mm 519 W/m2
10:24 5.9 °C -8 °C 1029.8 hPa ESE 9.7 km/h 14.5 km/h 36% 0.0 mm 526 W/m2
10:29 6.2 °C -8.5 °C 1029.8 hPa ENE 4.7 km/h 22.5 km/h 34% 0.0 mm 534 W/m2
10:34 6.2 °C -8.1 °C 1029.8 hPa ENE 6.4 km/h 14.5 km/h 35% 0.0 mm 541 W/m2
10:39 6.2 °C -8.1 °C 1029.8 hPa NE 14.3 km/h 22.5 km/h 35% 0.0 mm 547 W/m2
10:44 6.2 °C -8.5 °C 1029.8 hPa ESE 3.2 km/h 11.3 km/h 34% 0.0 mm 559 W/m2
10:49 6.4 °C -8.3 °C 1029.8 hPa East 11.1 km/h 16.1 km/h 34% 0.0 mm 564 W/m2
10:54 6.6 °C -7.8 °C 1029.8 hPa ESE 6.4 km/h 11.3 km/h 35% 0.0 mm 573 W/m2
10:59 6.7 °C -8.8 °C 1029.8 hPa East 16.3 km/h 19.3 km/h 32% 0.0 mm 580 W/m2
11:04 6.6 °C -8.5 °C 1029.8 hPa NE 7.9 km/h 11.3 km/h 33% 0.0 mm 584 W/m2
11:09 6.8 °C -8 °C 1029.5 hPa ESE 6.4 km/h 11.3 km/h 34% 0.0 mm 591 W/m2
11:14 6.8 °C -8.8 °C 1029.1 hPa SE 4.7 km/h 17.7 km/h 32% 0.0 mm 598 W/m2
11:19 6.9 °C -8.3 °C 1029.1 hPa NNE 7.9 km/h 16.1 km/h 33% 0.0 mm 601 W/m2
11:24 7.1 °C -7.7 °C 1029.5 hPa NE 4.7 km/h 12.9 km/h 34% 0.0 mm 606 W/m2
11:30 7.2 °C -7.6 °C 1029.5 hPa East 7.9 km/h 14.5 km/h 34% 0.0 mm 610 W/m2
11:35 7.3 °C -7.9 °C 1029.1 hPa East 17.7 km/h 19.3 km/h 33% 0.0 mm 615 W/m2
11:40 7.3 °C -8.3 °C 1029.1 hPa SE 3.2 km/h 17.7 km/h 32% 0.0 mm 619 W/m2
11:45 7.4 °C -8.2 °C 1028.8 hPa ESE 6.4 km/h 17.7 km/h 32% 0.0 mm 624 W/m2
11:50 7.6 °C -8.1 °C 1029.1 hPa East 11.1 km/h 17.7 km/h 32% 0.0 mm 628 W/m2
11:55 7.7 °C -8.4 °C 1028.8 hPa ESE 14.3 km/h 17.7 km/h 31% 0.0 mm 629 W/m2
12:00 7.8 °C -7.9 °C 1028.8 hPa East 13 km/h 22.5 km/h 32% 0.0 mm 631 W/m2
12:05 7.9 °C -7.4 °C 1028.5 hPa East 11.1 km/h 16.1 km/h 33% 0.0 mm 636 W/m2
12:11 8.3 °C -7.9 °C 1028.8 hPa ENE 7.9 km/h 11.3 km/h 31% 0.0 mm 638 W/m2
12:16 8.1 °C -8 °C 1028.8 hPa North 7.9 km/h 24.1 km/h 31% 0.0 mm 643 W/m2
12:21 8.2 °C -7.9 °C 1028.8 hPa NE 16.3 km/h 17.7 km/h 31% 0.0 mm 642 W/m2
12:26 8.2 °C -7.9 °C 1028.5 hPa East 4.7 km/h 24.1 km/h 31% 0.0 mm 640 W/m2
12:31 8.3 °C -7.9 °C 1028.8 hPa ENE 7.9 km/h 20.9 km/h 31% 0.0 mm 643 W/m2
12:36 8.5 °C -7.7 °C 1028.5 hPa East 13 km/h 14.5 km/h 31% 0.0 mm 640 W/m2
12:41 8.5 °C -7.7 °C 1028.5 hPa ENE 6.4 km/h 16.1 km/h 31% 0.0 mm 640 W/m2
12:46 8.7 °C -7.5 °C 1028.5 hPa NNW 14.3 km/h 19.3 km/h 31% 0.0 mm 643 W/m2
12:51 8.8 °C -7.4 °C 1028.5 hPa ESE 6.4 km/h 14.5 km/h 31% 0.0 mm 642 W/m2
12:56 9 °C -7.7 °C 1028.5 hPa NNW 6.4 km/h 16.1 km/h 30% 0.0 mm 643 W/m2
13:01 9 °C -8.6 °C 1028.5 hPa East 9.7 km/h 17.7 km/h 28% 0.0 mm 643 W/m2
13:06 9.1 °C -7.6 °C 1028.1 hPa East 11.1 km/h 16.1 km/h 30% 0.0 mm 640 W/m2
13:11 9.2 °C -7.9 °C 1028.1 hPa East 14.3 km/h 22.5 km/h 29% 0.0 mm 638 W/m2
13:16 9.1 °C -8.5 °C 1028.1 hPa NE 24.1 km/h 27.4 km/h 28% 0.0 mm 636 W/m2
13:21 9.1 °C -8 °C 1028.1 hPa East 9.7 km/h 16.1 km/h 29% 0.0 mm 633 W/m2
13:26 9.3 °C -7.8 °C 1028.1 hPa ENE 25.7 km/h 25.7 km/h 29% 0.0 mm 631 W/m2
13:31 9.4 °C -7.3 °C 1028.1 hPa NNE 13 km/h 22.5 km/h 30% 0.0 mm 624 W/m2
13:36 9.1 °C -8 °C 1028.1 hPa NE 11.1 km/h 20.9 km/h 29% 0.0 mm 619 W/m2
13:41 9.1 °C -7.6 °C 1028.1 hPa ESE 6.4 km/h 22.5 km/h 30% 0.0 mm 615 W/m2
13:46 9.4 °C -7.8 °C 1028.1 hPa ENE 4.7 km/h 14.5 km/h 29% 0.0 mm 612 W/m2
13:56 9.6 °C -8 °C 1028.1 hPa ENE 13 km/h 17.7 km/h 28% 0.0 mm 601 W/m2
14:01 9.6 °C -8 °C 1027.8 hPa East 9.7 km/h 14.5 km/h 28% 0.0 mm 598 W/m2
14:06 9.6 °C -8 °C 1027.8 hPa ESE 9.7 km/h 16.1 km/h 28% 0.0 mm 592 W/m2
14:11 9.6 °C -7.6 °C 1027.8 hPa SSE 7.9 km/h 11.3 km/h 29% 0.0 mm 582 W/m2
14:16 9.7 °C -7.9 °C 1027.8 hPa ENE 4.7 km/h 17.7 km/h 28% 0.0 mm 578 W/m2
14:21 9.7 °C -7.9 °C 1027.8 hPa ENE 6.4 km/h 16.1 km/h 28% 0.0 mm 571 W/m2
14:26 9.7 °C -7.1 °C 1027.8 hPa East 6.4 km/h 12.9 km/h 30% 0.0 mm 566 W/m2
14:31 9.7 °C -7.9 °C 1027.4 hPa East 11.1 km/h 16.1 km/h 28% 0.0 mm 557 W/m2
14:36 9.9 °C -7.3 °C 1027.4 hPa ESE 14.3 km/h 16.1 km/h 29% 0.0 mm 550 W/m2
14:41 10 °C -7.7 °C 1027.4 hPa NE 6.4 km/h 20.9 km/h 28% 0.0 mm 543 W/m2
14:46 10 °C -7.7 °C 1027.4 hPa ENE 16.3 km/h 16.1 km/h 28% 0.0 mm 536 W/m2
14:51 10 °C -7.7 °C 1027.1 hPa ESE 14.3 km/h 14.5 km/h 28% 0.0 mm 527 W/m2
14:56 10 °C -8.6 °C 1027.1 hPa ESE 11.1 km/h 20.9 km/h 26% 0.0 mm 520 W/m2
15:01 10 °C -7.7 °C 1027.1 hPa ENE 6.4 km/h 14.5 km/h 28% 0.0 mm 512 W/m2
15:06 10.1 °C -8.1 °C 1027.1 hPa NNE 4.7 km/h 20.9 km/h 27% 0.0 mm 501 W/m2
15:11 10.2 °C -8.5 °C 1027.1 hPa ENE 7.9 km/h 16.1 km/h 26% 0.0 mm 494 W/m2
15:17 10.3 °C -8.4 °C 1026.8 hPa ESE 6.4 km/h 12.9 km/h 26% 0.0 mm 483 W/m2
15:22 10.4 °C -8.3 °C 1026.8 hPa East 9.7 km/h 11.3 km/h 26% 0.0 mm 471 W/m2
15:27 10.4 °C -8.3 °C 1026.8 hPa SSE 3.2 km/h 29 km/h 26% 0.0 mm 461 W/m2
15:32 10.4 °C -8.3 °C 1026.8 hPa ENE 9.7 km/h 16.1 km/h 26% 0.0 mm 450 W/m2
15:37 10.3 °C -8.4 °C 1026.8 hPa East 14.3 km/h 29 km/h 26% 0.0 mm 441 W/m2
15:42 10.3 °C -8.4 °C 1026.8 hPa East 9.7 km/h 20.9 km/h 26% 0.0 mm 429 W/m2
15:47 10.4 °C -8.3 °C 1026.8 hPa ENE 11.1 km/h 11.3 km/h 26% 0.0 mm 418 W/m2
15:52 10.3 °C -8.4 °C 1026.8 hPa SE 20.9 km/h 20.9 km/h 26% 0.0 mm 408 W/m2
15:57 10.4 °C -8.3 °C 1026.8 hPa ENE 4.7 km/h 11.3 km/h 26% 0.0 mm 397 W/m2
16:02 10.5 °C -7.7 °C 1026.4 hPa ESE 9.7 km/h 14.5 km/h 27% 0.0 mm 385 W/m2
16:07 10.4 °C -7.8 °C 1026.4 hPa ENE 14.3 km/h 24.1 km/h 27% 0.0 mm 371 W/m2
16:12 10.3 °C -8.4 °C 1026.4 hPa ESE 3.2 km/h 6.4 km/h 26% 0.0 mm 362 W/m2
16:17 10.3 °C -7.9 °C 1026.4 hPa ENE 6.4 km/h 12.9 km/h 27% 0.0 mm 348 W/m2
16:22 10.4 °C -7.8 °C 1026.4 hPa ESE 4.7 km/h 14.5 km/h 27% 0.0 mm 338 W/m2
16:27 10.4 °C -8.3 °C 1026.4 hPa NE 6.4 km/h 16.1 km/h 26% 0.0 mm 323 W/m2
16:32 10.3 °C -8.4 °C 1026.4 hPa East 4.7 km/h 14.5 km/h 26% 0.0 mm 311 W/m2
16:37 10.2 °C -8.5 °C 1026.4 hPa ESE 9.7 km/h 17.7 km/h 26% 0.0 mm 301 W/m2
16:42 10.2 °C -8 °C 1026.1 hPa NE 4.7 km/h 24.1 km/h 27% 0.0 mm 287 W/m2
16:47 10.1 °C -7.6 °C 1026.1 hPa ESE 17.7 km/h 17.7 km/h 28% 0.0 mm 260 W/m2
16:52 10 °C -7.7 °C 1026.1 hPa SE 11.1 km/h 24.1 km/h 28% 0.0 mm 243 W/m2
16:57 10 °C -8.2 °C 1026.1 hPa SE 6.4 km/h 19.3 km/h 27% 0.0 mm 250 W/m2
17:02 9.8 °C -8.3 °C 1026.1 hPa East 7.9 km/h 11.3 km/h 27% 0.0 mm 79 W/m2
17:07 9.9 °C -8.2 °C 1026.1 hPa ESE 3.2 km/h 19.3 km/h 27% 0.0 mm 163 W/m2
17:12 9.8 °C -8.8 °C 1026.1 hPa SE 7.9 km/h 17.7 km/h 26% 0.0 mm 156 W/m2
17:17 9.8 °C -8.8 °C 1025.7 hPa ENE 4.7 km/h 19.3 km/h 26% 0.0 mm 192 W/m2
17:22 9.8 °C -8.3 °C 1025.7 hPa ENE 4.7 km/h 14.5 km/h 27% 0.0 mm 174 W/m2
17:27 9.8 °C -8.3 °C 1026.1 hPa ENE 7.9 km/h 16.1 km/h 27% 0.0 mm 160 W/m2
17:33 9.7 °C -8.9 °C 1025.7 hPa East 4.7 km/h 14.5 km/h 26% 0.0 mm 142 W/m2
17:38 9.6 °C -8.5 °C 1025.7 hPa East 3.2 km/h 9.7 km/h 27% 0.0 mm 125 W/m2
17:43 9.6 °C -9 °C 1025.7 hPa East 11.1 km/h 12.9 km/h 26% 0.0 mm 113 W/m2
17:48 9.6 °C -8.5 °C 1026.1 hPa ESE 6.4 km/h 14.5 km/h 27% 0.0 mm 98 W/m2
17:53 9.3 °C -8.8 °C 1026.1 hPa ESE 3.2 km/h 19.3 km/h 27% 0.0 mm 84 W/m2
17:58 9.2 °C -8.4 °C 1026.1 hPa East 13 km/h 16.1 km/h 28% 0.0 mm 69 W/m2
18:23 8.3 °C -8.7 °C 1025.7 hPa ESE 9.7 km/h 9.7 km/h 29% 0.0 mm 18 W/m2
18:28 8.2 °C -8.8 °C 1025.7 hPa ENE 3.2 km/h 19.3 km/h 29% 0.0 mm 16 W/m2
18:34 8.1 °C -8.9 °C 1026.1 hPa SE 11.1 km/h 11.3 km/h 29% 0.0 mm 14 W/m2
18:39 7.9 °C -8.6 °C 1026.1 hPa ESE 3.2 km/h 19.3 km/h 30% 0.0 mm 12 W/m2
18:44 7.8 °C -8.7 °C 1026.1 hPa ENE 3.2 km/h 4.8 km/h 30% 0.0 mm 11 W/m2
18:49 7.7 °C -8.8 °C 1026.1 hPa NE 4.7 km/h 9.7 km/h 30% 0.0 mm 9 W/m2
18:54 7.7 °C -8 °C 1026.1 hPa ESE 3.2 km/h 4.8 km/h 32% 0.0 mm 5 W/m2
18:59 7.5 °C -8.1 °C 1026.1 hPa ESE 1.4 km/h 6.4 km/h 32% 0.0 mm 0 W/m2
19:04 7.4 °C -8.2 °C 1026.1 hPa East 4.7 km/h 4.8 km/h 32% 0.0 mm 0 W/m2
19:09 7.3 °C -8.3 °C 1026.1 hPa SE 3.2 km/h 6.4 km/h 32% 0.0 mm 0 W/m2
19:14 7.2 °C -7.6 °C 1026.4 hPa East 4.7 km/h 4.8 km/h 34% 0.0 mm 0 W/m2
19:19 7 °C -8.2 °C 1026.4 hPa NE 3.2 km/h 3.2 km/h 33% 0.0 mm 0 W/m2
19:24 6.8 °C -8.4 °C 1026.4 hPa East 3.2 km/h 9.7 km/h 33% 0.0 mm 0 W/m2
19:29 6.7 °C -8.5 °C 1026.4 hPa ESE 3.2 km/h 3.2 km/h 33% 0.0 mm 0 W/m2
19:34 6.6 °C -8.2 °C 1026.4 hPa East 1.4 km/h 6.4 km/h 34% 0.0 mm 0 W/m2
19:39 6.4 °C -8.3 °C 1026.4 hPa East 1.4 km/h 4.8 km/h 34% 0.0 mm 0 W/m2
19:44 6.3 °C -8 °C 1026.4 hPa Calm   6.4 km/h 35% 0.0 mm 0 W/m2
19:54 5.9 °C -8 °C 1026.8 hPa Calm   4.8 km/h 36% 0.0 mm 0 W/m2
20:00 5.8 °C -8.1 °C 1026.8 hPa NNE 1.4 km/h 9.7 km/h 36% 0.0 mm 0 W/m2
20:05 5.8 °C -7.8 °C 1026.8 hPa ENE 3.2 km/h 4.8 km/h 37% 0.0 mm 0 W/m2
20:10 5.7 °C -7.2 °C 1026.8 hPa Calm   9.7 km/h 39% 0.0 mm 0 W/m2
20:15 5.4 °C -7.1 °C 1026.8 hPa Calm   1.6 km/h 40% 0.0 mm 0 W/m2
20:20 5.1 °C -6.2 °C 1026.8 hPa Calm     44% 0.0 mm 0 W/m2
20:25 4.7 °C -7.4 °C 1026.8 hPa East 1.4 km/h 6.4 km/h 41% 0.0 mm 0 W/m2
20:30 4.7 °C -7.1 °C 1026.8 hPa Calm   4.8 km/h 42% 0.0 mm 0 W/m2
20:35 4.7 °C -6.8 °C 1026.8 hPa SE 1.4 km/h 1.6 km/h 43% 0.0 mm 0 W/m2
20:40 4.6 °C -7.2 °C 1026.8 hPa ENE 3.2 km/h 3.2 km/h 42% 0.0 mm 0 W/m2
20:45 4.7 °C -7.1 °C 1026.8 hPa East 4.7 km/h 6.4 km/h 42% 0.0 mm 0 W/m2
20:50 4.7 °C -7.1 °C 1026.8 hPa Calm   4.8 km/h 42% 0.0 mm 0 W/m2
20:55 4.7 °C -7.1 °C 1027.1 hPa East 1.4 km/h 4.8 km/h 42% 0.0 mm 0 W/m2
21:00 4.7 °C -7.4 °C 1026.8 hPa ESE 1.4 km/h 3.2 km/h 41% 0.0 mm 0 W/m2
21:05 4.6 °C -7.2 °C 1027.1 hPa Calm   3.2 km/h 42% 0.0 mm 0 W/m2
21:11 4.5 °C -6.7 °C 1026.8 hPa Calm     44% 0.0 mm 0 W/m2
21:16 4.3 °C -6.3 °C 1026.8 hPa Calm   3.2 km/h 46% 0.0 mm 0 W/m2
21:21 3.9 °C -5.8 °C 1026.8 hPa Calm     49% 0.0 mm 0 W/m2
21:26 3.6 °C -5.9 °C 1026.8 hPa Calm     50% 0.0 mm 0 W/m2
21:31 3.3 °C -5.9 °C 1026.8 hPa Calm     51% 0.0 mm 0 W/m2
21:36 3.1 °C -5.6 °C 1026.8 hPa Calm     53% 0.0 mm 0 W/m2
21:41 2.8 °C -5.8 °C 1026.8 hPa Calm     53% 0.0 mm 0 W/m2
21:46 2.7 °C -6.7 °C 1026.8 hPa ESE 1.4 km/h 3.2 km/h 50% 0.0 mm 0 W/m2
21:51 3.1 °C -7.1 °C 1026.8 hPa Calm   1.6 km/h 47% 0.0 mm 0 W/m2
21:56 3.3 °C -7.2 °C 1026.8 hPa Calm   3.2 km/h 46% 0.0 mm 0 W/m2
22:01 3.4 °C -7.1 °C 1027.1 hPa Calm   1.6 km/h 46% 0.0 mm 0 W/m2
22:06 3.4 °C -6.3 °C 1027.1 hPa Calm   3.2 km/h 49% 0.0 mm 0 W/m2
22:11 3.2 °C -6 °C 1027.1 hPa Calm   3.2 km/h 51% 0.0 mm 0 W/m2
22:16 3 °C -5.9 °C 1027.1 hPa SSE 3.2 km/h 3.2 km/h 52% 0.0 mm 0 W/m2
22:21 2.8 °C -6.1 °C 1026.8 hPa Calm   3.2 km/h 52% 0.0 mm 0 W/m2
22:26 2.7 °C -5.9 °C 1026.8 hPa Calm   1.6 km/h 53% 0.0 mm 0 W/m2
22:31 2.7 °C -7 °C 1026.8 hPa Calm   4.8 km/h 49% 0.0 mm 0 W/m2
22:36 2.8 °C -6.3 °C 1027.1 hPa SSE 1.4 km/h 3.2 km/h 51% 0.0 mm 0 W/m2
22:41 2.8 °C -7.1 °C 1027.1 hPa Calm   4.8 km/h 48% 0.0 mm 0 W/m2
22:46 2.8 °C -6.9 °C 1026.8 hPa Calm   1.6 km/h 49% 0.0 mm 0 W/m2
22:56 2.9 °C -7 °C 1026.8 hPa Calm   6.4 km/h 48% 0.0 mm 0 W/m2
23:21 3.2 °C -7 °C 1026.8 hPa ESE 1.4 km/h 3.2 km/h 47% 0.0 mm 0 W/m2
23:26 3.4 °C -7.4 °C 1026.8 hPa East 4.7 km/h 6.4 km/h 45% 0.0 mm 0 W/m2
23:31 3.6 °C -7.2 °C 1026.8 hPa East 1.4 km/h 3.2 km/h 45% 0.0 mm 0 W/m2
23:36 3.6 °C -7.5 °C 1026.8 hPa ESE 3.2 km/h 6.4 km/h 44% 0.0 mm 0 W/m2
23:41 3.6 °C -7.2 °C 1026.8 hPa ENE 3.2 km/h 9.7 km/h 45% 0.0 mm 0 W/m2
23:46 3.6 °C -6.9 °C 1026.8 hPa SE 1.4 km/h 1.6 km/h 46% 0.0 mm 0 W/m2
23:51 3.4 °C -7.4 °C 1026.8 hPa East 1.4 km/h 9.7 km/h 45% 0.0 mm 0 W/m2
23:56 3.3 °C -7.2 °C 1026.8 hPa ESE 1.4 km/h 1.6 km/h 46% 0.0 mm 0 W/m2
Juneau County Weather
Compliments of Weather Underground - 2 mb